createdAt,value
2023-07-28T00:00:50.343Z,99.72
2023-07-28T00:03:38.549Z,99.68
2023-07-28T00:06:28.163Z,99.75
2023-07-28T00:09:16.545Z,99.30
2023-07-28T00:12:05.138Z,99.33
2023-07-28T00:14:50.870Z,99.01
2023-07-28T00:17:39.222Z,99.58
2023-07-28T00:20:27.902Z,99.35
2023-07-28T00:23:17.316Z,98.99
2023-07-28T00:26:05.527Z,99.20
2023-07-28T00:28:53.797Z,99.02
2023-07-28T00:31:33.436Z,99.22
2023-07-28T00:34:21.673Z,98.99
2023-07-28T00:37:09.935Z,98.91
2023-07-28T00:39:58.069Z,99.26
2023-07-28T00:42:37.753Z,98.62
2023-07-28T00:45:24.524Z,98.93
2023-07-28T00:48:15.640Z,98.38
2023-07-28T00:51:04.169Z,98.75
2023-07-28T00:53:54.429Z,98.80
2023-07-28T00:56:45.058Z,98.71
2023-07-28T00:59:33.809Z,99.00
2023-07-28T01:02:23.682Z,99.02
2023-07-28T01:05:12.202Z,98.09
2023-07-28T01:08:56.472Z,98.30
2023-07-28T01:12:02.776Z,98.13
2023-07-28T01:14:49.106Z,98.08
2023-07-28T01:17:29.245Z,98.50
2023-07-28T01:20:18.109Z,97.88
2023-07-28T01:23:22.609Z,98.40
2023-07-28T01:26:14.134Z,98.09
2023-07-28T01:29:03.556Z,98.30
2023-07-28T01:31:53.126Z,97.86
2023-07-28T01:34:32.681Z,98.86
2023-07-28T01:37:20.974Z,98.01
2023-07-28T01:40:10.262Z,98.85
2023-07-28T01:42:50.089Z,98.49
2023-07-28T01:45:38.428Z,99.22
2023-07-28T01:48:18.007Z,98.69
2023-07-28T01:51:06.307Z,99.36
2023-07-28T01:53:49.295Z,99.00
2023-07-28T01:56:32.571Z,98.99
2023-07-28T01:59:11.897Z,98.98
2023-07-28T02:01:52.644Z,99.14
2023-07-28T02:04:42.199Z,99.21
2023-07-28T02:07:30.941Z,99.31
2023-07-28T02:10:24.827Z,99.61
2023-07-28T02:13:04.692Z,99.12
2023-07-28T02:15:47.286Z,99.36
2023-07-28T02:18:27.195Z,99.34
2023-07-28T02:21:06.812Z,99.54
2023-07-28T02:23:56.213Z,99.85
2023-07-28T02:26:42.011Z,99.81
2023-07-28T02:29:23.466Z,100.00
2023-07-28T02:32:05.822Z,99.86
2023-07-28T02:34:46.858Z,100.00
2023-07-28T02:37:28.203Z,100.00
2023-07-28T02:40:09.309Z,99.89
2023-07-28T02:42:48.977Z,99.98
2023-07-28T02:45:28.595Z,99.99
2023-07-28T02:48:17.572Z,100.00
2023-07-28T02:51:05.066Z,99.88
2023-07-28T02:53:44.788Z,100.00
2023-07-28T02:56:28.028Z,99.89
2023-07-28T02:59:17.361Z,99.85
2023-07-28T03:02:05.709Z,99.83
2023-07-28T03:04:58.293Z,100.00
2023-07-28T03:07:37.911Z,99.81
2023-07-28T03:10:26.196Z,99.82
2023-07-28T03:13:14.440Z,100.00
2023-07-28T03:16:02.621Z,100.00
2023-07-28T03:18:51.360Z,100.00
2023-07-28T03:21:40.076Z,100.00
2023-07-28T03:24:26.278Z,99.94
2023-07-28T03:27:09.952Z,100.00
2023-07-28T03:29:52.511Z,100.00
2023-07-28T03:32:38.759Z,100.00
2023-07-28T03:35:18.371Z,99.91
2023-07-28T03:38:06.553Z,100.00
2023-07-28T03:40:55.596Z,100.00
2023-07-28T03:43:38.214Z,100.00
2023-07-28T03:46:20.122Z,100.00
2023-07-28T03:49:01.451Z,100.00
2023-07-28T03:51:49.712Z,99.85
2023-07-28T03:54:37.902Z,100.00
2023-07-28T03:57:20.539Z,99.87
2023-07-28T04:00:09.553Z,99.86
2023-07-28T04:02:52.610Z,100.00
2023-07-28T04:05:41.082Z,99.91
2023-07-28T04:08:23.783Z,100.00
2023-07-28T04:11:03.671Z,100.00
2023-07-28T04:13:51.804Z,99.81
2023-07-28T04:16:41.157Z,99.93
2023-07-28T04:19:30.546Z,100.00
2023-07-28T04:22:13.399Z,99.84
2023-07-28T04:25:02.908Z,100.00
2023-07-28T04:27:51.506Z,99.99
2023-07-28T04:30:39.681Z,100.00
2023-07-28T04:33:27.946Z,99.94
2023-07-28T04:36:17.045Z,100.00
2023-07-28T04:39:05.459Z,100.00
2023-07-28T04:41:45.376Z,100.00
2023-07-28T04:44:25.149Z,99.86
2023-07-28T04:47:08.753Z,100.00
2023-07-28T04:49:58.213Z,100.00
2023-07-28T04:52:40.960Z,99.86
2023-07-28T04:55:28.776Z,99.88
2023-07-28T04:58:18.454Z,99.51
2023-07-28T05:01:09.509Z,99.69
2023-07-28T05:03:52.742Z,99.82
2023-07-28T05:06:40.141Z,99.37
2023-07-28T05:09:19.700Z,99.66
2023-07-28T05:11:59.306Z,99.59
2023-07-28T05:14:46.670Z,99.54
2023-07-28T05:17:34.923Z,99.89
2023-07-28T05:20:23.149Z,99.52
2023-07-28T05:23:11.597Z,99.43
2023-07-28T05:25:59.792Z,99.43
2023-07-28T05:28:48.041Z,99.53
2023-07-28T05:31:36.419Z,99.40
2023-07-28T05:34:24.881Z,99.19
2023-07-28T05:37:12.812Z,99.29
2023-07-28T05:39:55.167Z,99.02
2023-07-28T05:42:40.273Z,98.78
2023-07-28T05:45:20.015Z,99.06
2023-07-28T05:48:08.074Z,98.95
2023-07-28T05:50:56.392Z,98.84
2023-07-28T05:53:36.077Z,98.72
2023-07-28T05:56:15.794Z,99.03
2023-07-28T05:58:55.434Z,98.48
2023-07-28T06:01:40.157Z,98.65
2023-07-28T06:04:26.878Z,98.64
2023-07-28T06:07:06.959Z,98.52
2023-07-28T06:09:55.078Z,97.92
2023-07-28T06:12:43.238Z,98.20
2023-07-28T06:15:31.621Z,98.15
2023-07-28T06:18:19.806Z,97.96
2023-07-28T06:21:03.802Z,97.84
2023-07-28T06:23:53.071Z,97.59
2023-07-28T06:26:33.360Z,97.22
2023-07-28T06:29:21.585Z,96.10
2023-07-28T06:32:08.929Z,96.03
2023-07-28T06:34:54.838Z,95.02
2023-07-28T06:37:43.118Z,95.36
2023-07-28T06:40:30.898Z,96.31
2023-07-28T06:43:20.536Z,95.88
2023-07-28T06:46:09.988Z,95.11
2023-07-28T06:48:58.230Z,95.73
2023-07-28T06:51:46.539Z,95.77
2023-07-28T06:54:37.012Z,94.88
2023-07-28T06:57:25.290Z,94.65
2023-07-28T07:00:14.283Z,94.89
2023-07-28T07:03:02.511Z,94.65
2023-07-28T07:05:52.771Z,94.11
2023-07-28T07:08:40.977Z,94.41
2023-07-28T07:11:29.100Z,94.84
2023-07-28T07:14:17.296Z,94.62
2023-07-28T07:17:05.151Z,94.85
2023-07-28T07:19:53.513Z,95.14
2023-07-28T07:22:41.802Z,94.81
2023-07-28T07:25:30.289Z,94.21
2023-07-28T07:28:18.580Z,94.24
2023-07-28T07:31:06.912Z,94.79
2023-07-28T07:33:55.299Z,93.78
2023-07-28T07:36:43.546Z,93.86
2023-07-28T07:39:31.733Z,93.47
2023-07-28T07:42:19.981Z,92.59
2023-07-28T07:45:08.798Z,92.70
2023-07-28T07:47:57.275Z,92.01
2023-07-28T07:50:45.387Z,92.08
2023-07-28T07:53:33.638Z,91.70
2023-07-28T07:56:21.849Z,91.55
2023-07-28T07:59:10.041Z,90.14
2023-07-28T08:02:00.015Z,89.42
2023-07-28T08:04:48.228Z,88.71
2023-07-28T08:07:36.506Z,88.72
2023-07-28T08:10:24.874Z,88.73
2023-07-28T08:13:13.303Z,87.68
2023-07-28T08:16:01.529Z,87.01
2023-07-28T08:18:30.107Z,86.37
2023-07-28T08:21:18.358Z,86.12
2023-07-28T08:24:07.262Z,85.71
2023-07-28T08:26:55.542Z,84.13
2023-07-28T08:29:43.915Z,83.97
2023-07-28T08:32:33.717Z,83.69
2023-07-28T08:35:22.029Z,83.31
2023-07-28T08:38:10.353Z,83.40
2023-07-28T08:40:59.917Z,82.54
2023-07-28T08:43:49.377Z,83.16
2023-07-28T08:46:38.732Z,82.94
2023-07-28T08:49:28.569Z,82.10
2023-07-28T08:52:20.501Z,81.42
2023-07-28T08:55:09.182Z,81.77
2023-07-28T08:57:57.329Z,81.80
2023-07-28T09:00:45.541Z,82.52
2023-07-28T09:03:35.192Z,80.62
2023-07-28T09:06:32.593Z,81.05
2023-07-28T09:09:24.962Z,79.98
2023-07-28T09:12:14.772Z,79.90
2023-07-28T09:15:03.140Z,79.73
2023-07-28T09:17:51.412Z,79.07
2023-07-28T09:20:43.230Z,78.33
2023-07-28T09:23:32.777Z,77.53
2023-07-28T09:26:21.199Z,76.71
2023-07-28T09:29:24.734Z,75.88
2023-07-28T09:32:12.980Z,74.88
2023-07-28T09:35:11.228Z,75.69
2023-07-28T09:38:00.645Z,73.21
2023-07-28T09:40:49.404Z,72.83
2023-07-28T09:43:42.284Z,73.46
2023-07-28T09:46:33.940Z,72.95
2023-07-28T09:49:30.594Z,71.57
2023-07-28T09:52:30.300Z,71.58
2023-07-28T09:55:15.085Z,69.70
2023-07-28T09:58:07.947Z,68.32
2023-07-28T10:00:56.402Z,70.03
2023-07-28T10:03:45.817Z,68.70
2023-07-28T10:06:36.492Z,69.68
2023-07-28T10:09:38.527Z,68.71
2023-07-28T10:12:28.128Z,68.42
2023-07-28T10:15:33.231Z,68.40
2023-07-28T10:18:24.679Z,67.44
2023-07-28T10:21:18.602Z,66.05
2023-07-28T10:24:07.148Z,65.22
2023-07-28T10:27:00.820Z,64.21
2023-07-28T10:30:06.022Z,64.29
2023-07-28T10:32:58.073Z,63.69
2023-07-28T10:35:50.382Z,63.01
2023-07-28T10:38:38.806Z,63.64
2023-07-28T10:41:21.495Z,61.70
2023-07-28T10:44:11.048Z,61.65
2023-07-28T10:46:59.900Z,60.40
2023-07-28T10:49:50.111Z,60.88
2023-07-28T10:52:47.084Z,63.65
2023-07-28T10:55:37.255Z,66.57
2023-07-28T10:58:25.424Z,66.35
2023-07-28T11:01:20.203Z,66.34
2023-07-28T11:04:19.843Z,66.61
2023-07-28T11:07:09.717Z,67.68
2023-07-28T11:09:58.730Z,66.67
2023-07-28T11:12:51.919Z,68.47
2023-07-28T11:15:40.315Z,68.40
2023-07-28T11:18:28.817Z,69.87
2023-07-28T11:21:23.886Z,70.67
2023-07-28T11:24:13.915Z,70.74
2023-07-28T11:27:03.689Z,70.44
2023-07-28T11:29:53.224Z,70.91
2023-07-28T11:32:41.574Z,70.75
2023-07-28T11:35:29.636Z,71.49
2023-07-28T11:38:19.260Z,71.83
2023-07-28T11:41:08.811Z,72.68
2023-07-28T11:43:57.530Z,72.63
2023-07-28T11:46:45.910Z,70.40
2023-07-28T11:49:34.090Z,70.83
2023-07-28T11:52:23.833Z,70.61
2023-07-28T11:55:11.087Z,69.07
2023-07-28T11:57:59.604Z,68.56
2023-07-28T12:00:48.321Z,67.57
2023-07-28T12:03:42.222Z,64.79
2023-07-28T12:06:29.894Z,66.38
2023-07-28T12:09:17.970Z,63.74
2023-07-28T12:12:06.466Z,61.17
2023-07-28T12:21:02.337Z,60.97
2023-07-28T12:26:40.821Z,61.29
2023-07-28T12:29:35.208Z,60.87
2023-07-28T12:32:23.422Z,59.15
2023-07-28T12:38:01.354Z,55.15
2023-07-28T12:46:27.891Z,53.22
2023-07-28T12:52:19.120Z,50.36
2023-07-28T12:54:52.039Z,48.81
2023-07-28T12:57:40.217Z,51.11
2023-07-28T13:03:19.146Z,47.69
2023-07-28T13:06:07.339Z,49.22
2023-07-28T13:14:32.127Z,46.10
2023-07-28T13:17:20.950Z,46.71
2023-07-28T13:20:10.645Z,47.32
2023-07-28T13:22:39.246Z,48.81
2023-07-28T13:25:27.418Z,49.76
2023-07-28T13:28:15.976Z,49.75
2023-07-28T13:31:06.010Z,50.16
2023-07-28T13:33:34.332Z,50.28
2023-07-28T13:36:25.652Z,51.05
2023-07-28T13:39:13.813Z,50.77
2023-07-28T13:42:02.111Z,49.03
2023-07-28T13:44:58.763Z,48.31
2023-07-28T13:47:39.919Z,49.68
2023-07-28T13:50:19.500Z,50.89
2023-07-28T13:52:59.201Z,50.47
2023-07-28T13:55:41.521Z,50.82
2023-07-28T13:58:30.769Z,48.15
2023-07-28T14:01:19.027Z,48.24
2023-07-28T14:04:22.648Z,46.80
2023-07-28T14:06:50.831Z,46.31
2023-07-28T14:09:30.563Z,44.78
2023-07-28T14:12:10.627Z,45.16
2023-07-28T14:14:51.223Z,44.30
2023-07-28T14:17:40.898Z,42.66
2023-07-28T14:20:29.262Z,42.25
2023-07-28T14:23:28.934Z,43.14
2023-07-28T14:26:17.176Z,42.28
2023-07-28T14:29:05.458Z,43.19
2023-07-28T14:31:54.939Z,43.54
2023-07-28T14:34:44.761Z,42.50
2023-07-28T14:37:33.040Z,41.66
2023-07-28T14:40:21.293Z,41.19
2023-07-28T14:43:09.989Z,40.96
2023-07-28T14:45:58.610Z,41.82
2023-07-28T14:48:47.223Z,43.95
2023-07-28T14:51:35.847Z,46.22
2023-07-28T14:54:23.787Z,48.53
2023-07-28T14:57:34.241Z,50.18
2023-07-28T15:00:05.133Z,52.63
2023-07-28T15:02:44.913Z,54.28
2023-07-28T15:05:24.505Z,56.87
2023-07-28T15:08:04.126Z,56.82
2023-07-28T15:10:44.456Z,59.62
2023-07-28T15:13:24.180Z,61.39
2023-07-28T15:16:04.064Z,61.64
2023-07-28T15:18:45.893Z,60.66
2023-07-28T15:21:27.384Z,60.00
2023-07-28T15:24:07.211Z,58.33
2023-07-28T15:26:48.954Z,57.61
2023-07-28T15:29:28.625Z,57.94
2023-07-28T15:32:08.388Z,59.23
2023-07-28T15:34:49.508Z,59.58
2023-07-28T15:37:30.241Z,58.41
2023-07-28T15:40:10.521Z,57.48
2023-07-28T15:42:50.158Z,57.28
2023-07-28T15:45:29.828Z,55.76
2023-07-28T15:48:09.654Z,54.48
2023-07-28T15:50:49.370Z,54.32
2023-07-28T15:53:29.028Z,55.55
2023-07-28T15:56:09.503Z,56.86
2023-07-28T15:58:49.178Z,57.99
2023-07-28T16:01:28.925Z,58.91
2023-07-28T16:04:09.352Z,59.75
2023-07-28T16:06:49.246Z,61.19
2023-07-28T16:09:28.939Z,61.18
2023-07-28T16:12:09.569Z,61.93
2023-07-28T16:14:49.794Z,62.17
2023-07-28T16:17:29.614Z,62.96
2023-07-28T16:20:10.338Z,62.03
2023-07-28T16:22:50.036Z,62.32
2023-07-28T16:25:29.668Z,62.63
2023-07-28T16:28:10.061Z,62.76
2023-07-28T16:30:49.930Z,62.64
2023-07-28T16:33:29.822Z,62.83
2023-07-28T16:36:09.881Z,64.44
2023-07-28T16:38:49.392Z,66.70
2023-07-28T16:41:29.337Z,67.19
2023-07-28T16:44:10.365Z,68.63
2023-07-28T16:46:50.033Z,69.52
2023-07-28T16:49:29.908Z,69.52
2023-07-28T16:52:09.682Z,70.26
2023-07-28T16:54:49.425Z,70.12
2023-07-28T16:57:31.016Z,70.31
2023-07-28T17:00:11.364Z,70.39
2023-07-28T17:02:51.980Z,69.66
2023-07-28T17:05:31.482Z,69.03
2023-07-28T17:08:11.085Z,69.58
2023-07-28T17:10:50.940Z,68.75
2023-07-28T17:13:30.625Z,68.95
2023-07-28T17:16:10.377Z,69.01
2023-07-28T17:18:49.937Z,69.23
2023-07-28T17:21:29.550Z,69.19
2023-07-28T17:24:12.113Z,69.28
2023-07-28T17:26:51.754Z,69.20
2023-07-28T17:29:31.317Z,69.63
2023-07-28T17:32:12.206Z,69.40
2023-07-28T17:34:51.830Z,68.93
2023-07-28T17:37:31.562Z,69.56
2023-07-28T17:40:11.786Z,69.37
2023-07-28T17:42:51.457Z,69.64
2023-07-28T17:45:31.137Z,68.94
2023-07-28T17:48:11.043Z,69.35
2023-07-28T17:50:50.628Z,69.49
2023-07-28T17:53:32.216Z,69.31
2023-07-28T17:56:23.966Z,69.79
2023-07-28T17:59:04.669Z,70.34
2023-07-28T18:01:44.342Z,70.10
2023-07-28T18:04:29.159Z,70.71
2023-07-28T18:07:08.967Z,71.49
2023-07-28T18:09:50.466Z,71.01
2023-07-28T18:12:28.565Z,71.28
2023-07-28T18:15:09.048Z,71.11
2023-07-28T18:17:48.772Z,71.25
2023-07-28T18:20:28.536Z,71.36
2023-07-28T18:23:08.225Z,71.46
2023-07-28T18:25:48.239Z,71.18
2023-07-28T18:28:29.807Z,71.13
2023-07-28T18:31:10.301Z,71.67
2023-07-28T18:33:49.961Z,71.84
2023-07-28T18:36:29.710Z,71.55
2023-07-28T18:39:09.432Z,72.48
2023-07-28T18:41:49.100Z,72.36
2023-07-28T18:44:29.234Z,72.41
2023-07-28T18:47:21.369Z,73.15
2023-07-28T18:50:00.987Z,73.10
2023-07-28T18:52:42.306Z,73.64
2023-07-28T18:55:21.938Z,73.63
2023-07-28T18:58:01.532Z,74.17
2023-07-28T19:00:41.572Z,74.65
2023-07-28T19:03:21.785Z,74.44
2023-07-28T19:06:01.389Z,74.98
2023-07-28T19:08:43.684Z,75.90
2023-07-28T19:11:21.998Z,76.29
2023-07-28T19:14:01.813Z,76.89
2023-07-28T19:16:41.668Z,76.84
2023-07-28T19:19:21.588Z,76.78
2023-07-28T19:22:08.860Z,77.45
2023-07-28T19:24:49.218Z,78.21
2023-07-28T19:27:31.138Z,78.64
2023-07-28T19:30:10.176Z,79.28
2023-07-28T19:32:50.082Z,79.04
2023-07-28T19:35:30.545Z,79.70
2023-07-28T19:38:13.026Z,80.05
2023-07-28T19:40:52.785Z,80.65
2023-07-28T19:43:32.592Z,80.64
2023-07-28T19:46:12.655Z,81.05
2023-07-28T19:48:58.225Z,81.46
2023-07-28T19:51:38.045Z,81.92
2023-07-28T19:54:17.761Z,82.73
2023-07-28T19:56:57.602Z,82.08
2023-07-28T19:59:37.533Z,82.76
2023-07-28T20:02:17.311Z,82.90
2023-07-28T20:04:57.066Z,82.97
2023-07-28T20:07:42.510Z,83.47
2023-07-28T20:10:24.033Z,83.30
2023-07-28T20:13:03.792Z,83.47
2023-07-28T20:15:43.385Z,83.58
2023-07-28T20:18:23.367Z,84.12
2023-07-28T20:21:05.324Z,83.78
2023-07-28T20:23:44.965Z,84.06
2023-07-28T20:26:24.701Z,84.84
2023-07-28T20:29:04.418Z,85.14
2023-07-28T20:31:44.173Z,84.75
2023-07-28T20:34:24.570Z,85.13
2023-07-28T20:37:04.899Z,85.51
2023-07-28T20:39:44.629Z,85.52
2023-07-28T20:42:24.971Z,85.16
2023-07-28T20:45:04.863Z,85.80
2023-07-28T20:47:44.697Z,85.81
2023-07-28T20:50:24.621Z,86.40
2023-07-28T20:53:04.227Z,86.34
2023-07-28T20:55:43.866Z,86.49
2023-07-28T20:58:34.707Z,86.70
2023-07-28T21:01:14.825Z,87.22
2023-07-28T21:03:56.431Z,87.53
2023-07-28T21:06:37.287Z,87.16
2023-07-28T21:09:18.893Z,87.59
2023-07-28T21:11:58.727Z,88.27
2023-07-28T21:14:41.084Z,88.10
2023-07-28T21:17:20.916Z,88.27
2023-07-28T21:20:00.487Z,88.29
2023-07-28T21:22:50.762Z,88.48
2023-07-28T21:25:30.778Z,88.62
2023-07-28T21:28:15.484Z,88.52
2023-07-28T21:30:55.438Z,88.49
2023-07-28T21:33:35.132Z,88.53
2023-07-28T21:36:14.861Z,88.57
2023-07-28T21:39:03.071Z,88.75
2023-07-28T21:41:42.846Z,87.92
2023-07-28T21:44:22.580Z,88.15
2023-07-28T21:47:02.310Z,87.15
2023-07-28T21:49:46.218Z,86.96
2023-07-28T21:52:25.891Z,86.02
2023-07-28T21:55:06.914Z,86.07
2023-07-28T21:57:47.743Z,85.92
2023-07-28T22:00:27.883Z,85.01
2023-07-28T22:03:07.718Z,84.85
2023-07-28T22:05:47.941Z,84.68
2023-07-28T22:08:28.592Z,84.79
2023-07-28T22:11:09.017Z,85.08
2023-07-28T22:13:47.975Z,84.93
2023-07-28T22:16:29.603Z,85.08
2023-07-28T22:19:07.971Z,85.39
2023-07-28T22:21:47.587Z,85.45
2023-07-28T22:24:27.339Z,85.43
2023-07-28T22:27:17.631Z,85.19
2023-07-28T22:30:06.805Z,85.01
2023-07-28T22:32:50.698Z,85.22
2023-07-28T22:35:30.394Z,85.30
2023-07-28T22:38:19.932Z,85.10
2023-07-28T22:40:59.645Z,85.46
2023-07-28T22:43:41.428Z,85.36
2023-07-28T22:46:21.130Z,85.59
2023-07-28T22:49:01.175Z,86.05
2023-07-28T22:51:40.894Z,86.24
2023-07-28T22:54:20.545Z,86.32
2023-07-28T22:57:00.166Z,85.97
2023-07-28T22:59:39.960Z,86.89
2023-07-28T23:02:19.734Z,86.18
2023-07-28T23:05:06.692Z,86.26
2023-07-28T23:07:48.975Z,86.30
2023-07-28T23:10:28.655Z,86.83
2023-07-28T23:13:08.437Z,86.52
2023-07-28T23:15:50.449Z,86.35
2023-07-28T23:18:30.155Z,87.02
2023-07-28T23:21:09.946Z,87.07
2023-07-28T23:23:49.722Z,87.02
2023-07-28T23:26:29.481Z,87.32
2023-07-28T23:29:11.455Z,87.21
2023-07-28T23:31:51.078Z,86.88
2023-07-28T23:34:30.754Z,87.13
2023-07-28T23:37:10.732Z,87.19
2023-07-28T23:39:51.571Z,87.07
2023-07-28T23:42:31.206Z,87.47
2023-07-28T23:45:11.750Z,87.60
2023-07-28T23:47:51.464Z,87.77
2023-07-28T23:50:31.063Z,87.58
2023-07-28T23:53:10.725Z,87.60
2023-07-28T23:55:51.749Z,88.21
2023-07-28T23:58:32.024Z,87.71
